Time;durP1;ratioP1;P1;durP2;ratioP2;P2;SDS_P1;SDS_P2;PMS_P1;PMS_P2;Temp;Humidity;BMP_temperature;BMP_pressure;BME280_temperature;BME280_humidity;BME280_pressure;Samples;Min_cycle;Max_cycle;Signal;HPM_P1;HPM_P2
2022/02/17 00:01:48;;;;;;;4.10;2.75;;;;;;;7.80;67.42;96615.81;5112268;28;20030;-74
2022/02/17 00:04:14;;;;;;;4.07;2.88;;;;;;;7.84;67.12;96622.22;5095803;28;20023;-75
2022/02/17 00:06:39;;;;;;;4.85;2.92;;;;;;;7.84;67.49;96605.06;5114386;28;20076;-75
2022/02/17 00:09:04;;;;;;;3.28;2.20;;;;;;;7.87;67.40;96643.41;5113914;28;20387;-74
2022/02/17 00:11:30;;;;;;;3.85;2.60;;;;;;;7.90;67.15;96639.25;5113495;28;20016;-74
2022/02/17 00:13:55;;;;;;;4.60;2.63;;;;;;;7.95;66.88;96603.56;5113706;28;20049;-74
2022/02/17 00:16:21;;;;;;;5.53;3.10;;;;;;;7.95;67.11;96595.38;5113879;28;20024;-75
2022/02/17 00:18:46;;;;;;;4.80;2.90;;;;;;;7.98;67.20;96600.19;5113246;28;20043;-75
2022/02/17 00:21:11;;;;;;;5.70;3.10;;;;;;;8.02;66.97;96623.00;5113755;28;20020;-75
2022/02/17 00:23:37;;;;;;;5.97;2.38;;;;;;;8.05;67.21;96608.69;5113591;28;20089;-75
2022/02/17 00:26:02;;;;;;;4.07;2.80;;;;;;;8.10;67.24;96591.34;5113492;28;20364;-74
2022/02/17 00:28:28;;;;;;;5.28;3.40;;;;;;;8.13;66.74;96584.41;5114482;28;20016;-74
2022/02/17 00:30:53;;;;;;;4.72;3.63;;;;;;;8.17;66.29;96588.91;5114180;28;20488;-74
2022/02/17 00:33:20;;;;;;;5.05;3.00;;;;;;;8.25;66.75;96590.00;5114836;28;20467;-74
2022/02/17 00:35:46;;;;;;;4.70;3.08;;;;;;;8.29;65.92;96621.00;5113751;28;20479;-75
2022/02/17 00:38:11;;;;;;;4.63;3.47;;;;;;;8.36;66.41;96563.13;5113413;28;20111;-74
2022/02/17 00:40:37;;;;;;;6.82;3.80;;;;;;;8.39;66.29;96605.38;5112715;28;20110;-73
2022/02/17 00:43:02;;;;;;;5.43;3.13;;;;;;;8.44;66.38;96594.25;5113128;28;20028;-74
2022/02/17 00:45:27;;;;;;;7.15;3.53;;;;;;;8.47;65.99;96601.81;5113134;28;20485;-74
2022/02/17 00:47:53;;;;;;;5.53;3.22;;;;;;;8.50;66.02;96606.66;5113347;28;20028;-75
2022/02/17 00:50:18;;;;;;;6.38;3.35;;;;;;;8.48;66.07;96597.94;5112746;28;20023;-74
2022/02/17 00:52:44;;;;;;;4.50;2.75;;;;;;;8.53;66.25;96588.81;5112869;28;20034;-74
2022/02/17 00:55:09;;;;;;;5.53;2.95;;;;;;;8.52;66.38;96579.00;5113060;28;20026;-76
2022/02/17 00:57:35;;;;;;;4.13;3.03;;;;;;;8.52;65.98;96574.34;5112958;28;20106;-73
2022/02/17 01:00:01;;;;;;;5.15;2.90;;;;;;;8.54;66.42;96595.88;5110191;28;20063;-75
2022/02/17 01:02:26;;;;;;;3.28;2.45;;;;;;;8.53;66.05;96584.13;5112653;28;20011;-73
2022/02/17 01:04:52;;;;;;;4.47;2.90;;;;;;;8.53;66.25;96565.00;5113390;28;20052;-74
2022/02/17 01:07:17;;;;;;;4.00;2.50;;;;;;;8.55;66.27;96570.16;5113222;28;20425;-74
2022/02/17 01:09:43;;;;;;;5.30;2.70;;;;;;;8.56;66.58;96547.16;5112765;28;20011;-73
2022/02/17 01:12:09;;;;;;;3.78;2.47;;;;;;;8.57;66.62;96519.50;5111743;28;20076;-73
2022/02/17 01:14:35;;;;;;;3.45;2.20;;;;;;;8.55;66.45;96521.75;5113209;28;20039;-73
2022/02/17 01:17:01;;;;;;;3.08;2.25;;;;;;;8.51;67.39;96509.88;5112515;28;20396;-72
2022/02/17 01:19:26;;;;;;;4.40;2.58;;;;;;;8.51;67.16;96477.09;5113737;28;20032;-73
2022/02/17 01:21:52;;;;;;;4.20;2.42;;;;;;;8.51;67.56;96459.94;5113469;28;20023;-73
2022/02/17 01:24:17;;;;;;;3.70;2.22;;;;;;;8.51;67.28;96460.72;5111997;28;20532;-73
2022/02/17 01:26:43;;;;;;;3.90;2.30;;;;;;;8.51;67.55;96477.09;5112418;28;20068;-74
2022/02/17 01:29:08;;;;;;;3.65;2.30;;;;;;;8.53;67.88;96479.53;5112228;28;20028;-74
2022/02/17 01:31:33;;;;;;;2.53;1.92;;;;;;;8.52;68.08;96472.44;5112258;28;20387;-74
2022/02/17 01:33:59;;;;;;;4.18;2.70;;;;;;;8.54;67.71;96470.19;5112167;28;20016;-74
2022/02/17 01:36:24;;;;;;;4.13;2.70;;;;;;;8.55;67.48;96458.91;5112458;28;20032;-74
2022/02/17 01:38:51;;;;;;;3.78;2.10;;;;;;;8.56;67.25;96444.13;5112251;28;20023;-74
2022/02/17 01:41:16;;;;;;;3.90;2.20;;;;;;;8.58;67.35;96428.19;5112136;28;20024;-75
2022/02/17 01:43:42;;;;;;;3.38;2.22;;;;;;;8.58;67.73;96469.19;5112757;28;20042;-74
2022/02/17 01:46:09;;;;;;;4.15;2.40;;;;;;;8.56;68.50;96451.53;5113745;28;20016;-75
2022/02/17 01:48:34;;;;;;;3.78;2.55;;;;;;;8.51;69.10;96427.13;5113319;28;20024;-74
2022/02/17 01:51:00;;;;;;;4.53;2.80;;;;;;;8.41;69.08;96411.91;5113368;28;20027;-75
2022/02/17 01:53:26;;;;;;;3.60;2.78;;;;;;;8.30;70.30;96414.22;5113188;28;20029;-75
2022/02/17 01:55:54;;;;;;;3.50;2.97;;;;;;;8.21;70.76;96408.81;5112075;28;20079;-74
2022/02/17 01:58:20;;;;;;;3.22;2.65;;;;;;;8.09;72.39;96422.38;5110584;28;20008;-74
2022/02/17 02:00:46;;;;;;;3.60;2.67;;;;;;;8.03;73.11;96403.47;5111508;28;20467;-74
2022/02/17 02:03:12;;;;;;;4.20;3.03;;;;;;;7.98;72.47;96379.06;5111666;28;20061;-74
2022/02/17 02:05:39;;;;;;;3.90;2.42;;;;;;;7.94;73.05;96359.06;5108924;28;20072;-74
2022/02/17 02:08:08;;;;;;;3.35;2.45;;;;;;;7.90;72.70;96345.25;5110426;28;20118;-74
2022/02/17 02:10:33;;;;;;;3.38;2.70;;;;;;;7.90;73.27;96325.38;5111972;28;20110;-74
2022/02/17 02:13:00;;;;;;;4.18;3.22;;;;;;;7.88;73.19;96313.97;5111055;28;20106;-74
2022/02/17 02:15:28;;;;;;;4.40;3.00;;;;;;;7.89;74.03;96332.75;5093232;28;20042;-74
2022/02/17 02:17:54;;;;;;;4.30;2.95;;;;;;;7.85;74.88;96320.88;5111101;28;20023;-75
2022/02/17 02:20:19;;;;;;;4.07;3.17;;;;;;;7.78;74.83;96328.00;5111405;28;20072;-74
2022/02/17 02:22:46;;;;;;;5.53;3.60;;;;;;;7.72;75.40;96314.53;5109176;28;20019;-74
2022/02/17 02:25:12;;;;;;;4.70;3.40;;;;;;;7.64;76.18;96293.56;5111713;28;20387;-74
2022/02/17 02:27:38;;;;;;;4.88;3.60;;;;;;;7.55;76.51;96281.91;5112341;28;20030;-75
2022/02/17 02:30:06;;;;;;;3.50;2.60;;;;;;;7.48;76.30;96290.63;5111687;28;20684;-75
2022/02/17 02:32:32;;;;;;;4.10;3.17;;;;;;;7.48;77.31;96287.88;5112005;28;20030;-75
2022/02/17 02:34:57;;;;;;;4.05;2.80;;;;;;;7.46;77.80;96276.50;5111944;28;20027;-75
2022/02/17 02:37:23;;;;;;;3.50;2.70;;;;;;;7.45;78.52;96264.81;5111357;28;20032;-75
2022/02/17 02:39:48;;;;;;;5.72;3.03;;;;;;;7.43;78.61;96261.59;5090114;28;20054;-75
2022/02/17 02:42:14;;;;;;;6.22;3.85;;;;;;;7.41;79.51;96252.16;5111998;28;20024;-75
2022/02/17 02:44:39;;;;;;;3.90;2.80;;;;;;;7.42;79.57;96237.38;5111772;28;20023;-76
2022/02/17 02:47:05;;;;;;;4.65;2.60;;;;;;;7.43;79.97;96215.25;5112045;28;20091;-75
2022/02/17 02:49:31;;;;;;;3.85;3.05;;;;;;;7.45;80.13;96212.19;5111834;28;20071;-75
2022/02/17 02:51:56;;;;;;;3.30;2.30;;;;;;;7.46;79.96;96208.31;5111151;28;20034;-75
2022/02/17 02:54:21;;;;;;;3.70;2.50;;;;;;;7.49;79.98;96204.16;5111216;28;20019;-75
2022/02/17 02:56:47;;;;;;;3.28;2.20;;;;;;;7.53;79.86;96191.44;5111542;28;20047;-76
2022/02/17 02:59:12;;;;;;;3.53;2.40;;;;;;;7.57;79.68;96193.16;5111742;28;20023;-76
2022/02/17 03:01:38;;;;;;;3.15;2.30;;;;;;;7.63;80.36;96220.25;5111507;28;20047;-76
2022/02/17 03:04:03;;;;;;;3.40;2.40;;;;;;;7.68;79.91;96201.75;5111585;28;20055;-75
2022/02/17 03:06:32;;;;;;;3.80;2.50;;;;;;;7.71;79.86;96201.06;5111725;28;20513;-75
2022/02/17 03:08:58;;;;;;;2.13;1.70;;;;;;;7.75;79.57;96196.56;5111410;28;20015;-76
2022/02/17 03:11:25;;;;;;;3.55;1.88;;;;;;;7.81;79.74;96190.91;5111282;28;20032;-76
2022/02/17 03:13:50;;;;;;;3.08;2.00;;;;;;;7.85;79.61;96194.56;5111891;28;20022;-75
2022/02/17 03:16:15;;;;;;;1.73;1.30;;;;;;;7.86;79.34;96172.38;5111060;28;20027;-76
2022/02/17 03:18:41;;;;;;;3.00;1.75;;;;;;;7.92;79.34;96162.06;5111310;28;20030;-75
2022/02/17 03:21:06;;;;;;;2.63;1.67;;;;;;;7.93;79.31;96160.13;5090816;28;20027;-76
2022/02/17 03:23:32;;;;;;;3.22;2.30;;;;;;;7.96;79.44;96173.09;5111499;28;20024;-76
2022/02/17 03:25:58;;;;;;;2.72;1.88;;;;;;;7.97;79.13;96172.75;5111424;28;20026;-76
2022/02/17 03:28:24;;;;;;;2.72;1.70;;;;;;;7.96;78.86;96170.38;5111743;28;20122;-76
2022/02/17 03:30:49;;;;;;;2.95;2.50;;;;;;;7.99;79.41;96173.22;5110836;28;20502;-76
2022/02/17 03:33:15;;;;;;;2.88;1.80;;;;;;;8.00;78.91;96138.56;5110631;28;20020;-75
2022/02/17 03:35:40;;;;;;;2.33;1.80;;;;;;;8.07;78.66;96132.53;5110601;28;20027;-76
2022/02/17 03:38:06;;;;;;;2.13;1.60;;;;;;;8.09;78.92;96124.81;5115166;28;20467;-75
2022/02/17 03:40:31;;;;;;;2.85;2.05;;;;;;;8.16;78.84;96112.19;5114581;28;20031;-75
2022/02/17 03:42:57;;;;;;;2.33;1.52;;;;;;;8.22;78.36;96110.06;5115581;28;20019;-75
2022/02/17 03:45:22;;;;;;;1.55;1.15;;;;;;;8.26;78.42;96132.81;5115486;28;20023;-76
2022/02/17 03:47:47;;;;;;;1.77;1.02;;;;;;;8.33;78.77;96146.72;5115595;28;20023;-75
2022/02/17 03:50:13;;;;;;;2.70;1.58;;;;;;;8.37;78.08;96135.91;5115023;28;20035;-75
2022/02/17 03:52:39;;;;;;;2.15;1.60;;;;;;;8.42;77.67;96148.53;5115505;28;20030;-76
2022/02/17 03:55:05;;;;;;;3.83;1.77;;;;;;;8.44;77.98;96122.50;5115349;28;20437;-75
2022/02/17 03:57:30;;;;;;;2.28;1.15;;;;;;;8.50;78.11;96142.22;5115508;28;20044;-75
2022/02/17 03:59:56;;;;;;;2.28;1.23;;;;;;;8.55;77.63;96143.94;5115121;28;20471;-75
2022/02/17 04:02:21;;;;;;;2.22;1.38;;;;;;;8.58;78.06;96133.13;5115515;28;20027;-75
2022/02/17 04:04:47;;;;;;;2.03;1.13;;;;;;;8.62;77.46;96108.63;5115443;28;20383;-75
2022/02/17 04:07:14;;;;;;;1.70;1.30;;;;;;;8.68;77.59;96117.41;5115056;28;20016;-75
2022/02/17 04:09:40;;;;;;;2.00;1.20;;;;;;;8.73;77.20;96070.72;5115007;28;20030;-75
2022/02/17 04:12:06;;;;;;;1.48;1.00;;;;;;;8.76;76.64;96068.09;5114737;28;20019;-75
2022/02/17 04:14:31;;;;;;;2.28;1.15;;;;;;;8.83;76.52;96061.25;5114960;28;20502;-75
2022/02/17 04:16:57;;;;;;;1.70;1.23;;;;;;;8.88;77.10;96050.09;5115042;28;20100;-75
2022/02/17 04:19:22;;;;;;;1.00;0.88;;;;;;;8.91;77.07;96055.66;5114664;28;20043;-76
2022/02/17 04:21:48;;;;;;;1.30;1.00;;;;;;;8.96;76.30;96048.38;5113938;28;20524;-75
2022/02/17 04:24:13;;;;;;;1.60;1.08;;;;;;;8.98;76.01;96032.41;5076501;28;20038;-75
2022/02/17 04:26:38;;;;;;;2.47;1.35;;;;;;;8.96;76.08;96035.50;5114930;28;20024;-75
2022/02/17 04:29:05;;;;;;;1.50;1.20;;;;;;;9.01;76.06;96042.66;5114635;28;20028;-75
2022/02/17 04:31:30;;;;;;;1.30;0.90;;;;;;;9.02;75.73;96030.59;5096419;28;20039;-75
2022/02/17 04:33:56;;;;;;;1.90;1.20;;;;;;;9.08;75.86;96026.47;5114852;28;20028;-76
2022/02/17 04:36:21;;;;;;;2.13;1.20;;;;;;;9.13;75.24;96033.63;5114483;28;20023;-75
2022/02/17 04:38:47;;;;;;;1.48;1.00;;;;;;;9.14;75.23;96049.72;5114292;28;20080;-75
2022/02/17 04:43:57;;;;;;;3.08;1.40;;;;;;;9.17;75.54;96026.31;5114310;28;20165;-75
2022/02/17 04:46:25;;;;;;;2.08;1.10;;;;;;;9.20;75.68;96029.16;5114233;28;20114;-75
2022/02/17 04:48:51;;;;;;;3.10;1.25;;;;;;;9.18;75.36;96025.19;5113919;28;20059;-75
2022/02/17 04:51:16;;;;;;;2.20;1.80;;;;;;;9.20;74.88;96006.50;5114043;28;20028;-75
2022/02/17 04:53:42;;;;;;;1.45;1.35;;;;;;;9.22;75.08;95994.03;5114213;28;20371;-75
2022/02/17 04:56:08;;;;;;;2.00;1.58;;;;;;;9.25;75.01;95984.38;5114179;28;20146;-75
2022/02/17 04:58:35;;;;;;;1.90;1.38;;;;;;;9.28;74.96;95982.84;5113571;28;20047;-75
2022/02/17 05:01:00;;;;;;;1.70;1.30;;;;;;;9.30;74.97;95988.78;5113563;28;20372;-75
2022/02/17 05:03:26;;;;;;;2.63;1.48;;;;;;;9.31;74.80;95987.63;5114127;28;20039;-74
2022/02/17 05:05:52;;;;;;;2.47;1.50;;;;;;;9.33;74.86;95982.63;5113510;28;20373;-75
2022/02/17 05:08:19;;;;;;;3.90;1.67;;;;;;;9.34;75.36;95993.22;5114188;28;20038;-76
2022/02/17 05:10:48;;;;;;;2.75;1.85;;;;;;;9.35;74.89;96007.69;5112268;28;20471;-75
2022/02/17 05:13:14;;;;;;;3.67;2.00;;;;;;;9.41;75.01;95991.81;5113841;28;20024;-75
2022/02/17 05:15:40;;;;;;;3.05;1.80;;;;;;;9.46;74.95;95966.94;5112932;28;20778;-75
2022/02/17 05:18:06;;;;;;;2.22;1.60;;;;;;;9.48;74.99;95978.31;5113258;28;20035;-75
2022/02/17 05:20:31;;;;;;;2.25;1.60;;;;;;;9.48;74.39;95968.19;5094333;28;20039;-74
2022/02/17 05:22:57;;;;;;;3.05;1.88;;;;;;;9.51;74.17;95951.06;5113367;28;20107;-74
2022/02/17 05:25:22;;;;;;;2.47;1.60;;;;;;;9.51;74.66;95961.22;5113476;28;20532;-77
2022/02/17 05:27:47;;;;;;;1.92;1.40;;;;;;;9.52;74.46;95947.19;5113409;28;20070;-76
2022/02/17 05:30:13;;;;;;;2.67;1.67;;;;;;;9.54;74.24;95957.78;5112687;28;20020;-75
2022/02/17 05:32:42;;;;;;;2.88;1.70;;;;;;;9.55;74.55;95959.34;5112754;28;20076;-75
2022/02/17 05:35:09;;;;;;;2.60;1.70;;;;;;;9.57;74.17;95939.88;5112941;28;20016;-75
2022/02/17 05:37:35;;;;;;;4.63;2.42;;;;;;;9.60;74.44;95945.44;5112449;28;20027;-75
2022/02/17 05:40:03;;;;;;;3.13;1.63;;;;;;;9.63;74.37;95935.69;5112437;28;20119;-75
2022/02/17 05:42:28;;;;;;;5.30;3.08;;;;;;;9.63;74.13;95925.56;5112753;28;20007;-75
2022/02/17 05:44:53;;;;;;;3.00;2.05;;;;;;;9.65;74.00;95933.41;5112697;28;20069;-74
2022/02/17 05:47:20;;;;;;;5.32;2.88;;;;;;;9.65;74.39;95931.47;5112820;28;20054;-75
2022/02/17 05:49:45;;;;;;;2.50;1.77;;;;;;;9.70;74.56;95924.16;5112734;28;20103;-75
2022/02/17 05:52:11;;;;;;;3.60;2.30;;;;;;;9.70;74.29;95903.03;5112203;28;20102;-76
2022/02/17 05:54:36;;;;;;;4.25;2.60;;;;;;;9.74;73.72;95890.25;5113074;28;20015;-76
2022/02/17 05:57:02;;;;;;;6.93;3.70;;;;;;;9.73;74.17;95890.63;5091421;28;20040;-76
2022/02/17 05:59:27;;;;;;;5.65;3.50;;;;;;;9.76;73.59;95895.38;5112274;28;20016;-76
2022/02/17 06:01:52;;;;;;;5.95;2.85;;;;;;;9.76;73.77;95879.75;5112590;28;20498;-75
2022/02/17 06:04:18;;;;;;;10.18;4.47;;;;;;;9.80;74.27;95882.56;5112068;28;20073;-75
2022/02/17 06:06:43;;;;;;;6.47;3.67;;;;;;;9.80;74.43;95888.03;5111796;28;20091;-76
2022/02/17 06:09:09;;;;;;;7.50;4.28;;;;;;;9.83;73.58;95887.31;5111971;28;20451;-76
2022/02/17 06:11:34;;;;;;;8.02;5.03;;;;;;;9.86;73.68;95897.56;5093735;28;20018;-75
2022/02/17 06:13:59;;;;;;;8.38;4.35;;;;;;;9.90;73.47;95887.50;5112004;28;20014;-75
2022/02/17 06:16:25;;;;;;;5.10;2.80;;;;;;;9.90;73.15;95887.50;5111765;28;20060;-75
2022/02/17 06:18:50;;;;;;;5.47;3.42;;;;;;;9.92;72.76;95868.00;5111517;28;20475;-75
2022/02/17 06:21:16;;;;;;;4.90;2.72;;;;;;;9.92;73.87;95846.09;5111913;28;20020;-75
2022/02/17 06:23:41;;;;;;;3.92;3.00;;;;;;;9.96;73.40;95844.22;5112117;28;20038;-75
2022/02/17 06:26:07;;;;;;;4.15;2.50;;;;;;;9.98;72.72;95844.66;5111750;28;20027;-75
2022/02/17 06:28:33;;;;;;;4.95;2.53;;;;;;;10.01;72.90;95865.84;5111756;28;20018;-76
2022/02/17 06:30:58;;;;;;;2.80;1.70;;;;;;;10.02;72.87;95845.50;5111382;28;20057;-75
2022/02/17 06:33:23;;;;;;;4.45;2.15;;;;;;;10.07;72.59;95844.47;5111947;28;20019;-75
2022/02/17 06:35:49;;;;;;;3.03;1.85;;;;;;;10.10;72.48;95808.16;5093388;28;20463;-74
2022/02/17 06:38:14;;;;;;;3.00;1.70;;;;;;;10.12;72.52;95812.09;5111094;28;20084;-75
2022/02/17 06:40:40;;;;;;;2.65;1.45;;;;;;;10.15;72.40;95790.63;5091494;28;20027;-75
2022/02/17 06:43:08;;;;;;;3.80;1.70;;;;;;;10.15;72.11;95793.38;5111560;28;20073;-75
2022/02/17 06:45:35;;;;;;;3.80;2.10;;;;;;;10.18;72.08;95778.97;5110833;28;20023;-75
2022/02/17 06:48:00;;;;;;;3.08;1.63;;;;;;;10.17;71.64;95771.88;5111011;28;20539;-75
2022/02/17 06:50:26;;;;;;;2.67;1.70;;;;;;;10.20;71.95;95761.00;5111262;28;20051;-76
2022/02/17 06:52:51;;;;;;;4.03;2.20;;;;;;;10.22;71.24;95761.44;5111227;28;20023;-75
2022/02/17 06:55:16;;;;;;;2.30;1.50;;;;;;;10.22;71.00;95761.44;5111040;28;20028;-75
2022/02/17 06:57:43;;;;;;;3.33;1.77;;;;;;;10.24;72.40;95730.97;5111142;28;20092;-75
2022/02/17 07:00:10;;;;;;;3.40;1.88;;;;;;;10.25;71.22;95755.22;5111083;28;20038;-75
2022/02/17 07:02:35;;;;;;;2.50;1.58;;;;;;;10.30;71.04;95723.22;5111674;28;20051;-75
2022/02/17 07:05:03;;;;;;;3.33;1.83;;;;;;;10.33;71.18;95750.72;5110884;28;20463;-75
2022/02/17 07:07:29;;;;;;;1.85;1.40;;;;;;;10.32;71.53;95720.91;5111024;28;20708;-76
2022/02/17 07:09:54;;;;;;;3.00;1.80;;;;;;;10.25;71.68;95776.38;5110332;28;20031;-75
2022/02/17 07:12:20;;;;;;;2.85;1.50;;;;;;;10.19;72.27;95877.19;5111296;28;20042;-75
2022/02/17 07:14:45;;;;;;;8.07;4.07;;;;;;;10.08;71.43;95953.63;5109801;28;20031;-76
2022/02/17 07:17:11;;;;;;;2.83;1.00;;;;;;;9.24;66.16;96016.38;5111432;28;20036;-76
2022/02/17 07:19:36;;;;;;;5.00;1.80;;;;;;;8.00;68.12;96030.16;5111084;28;20016;-76
2022/02/17 07:22:02;;;;;;;1.70;0.45;;;;;;;6.95;69.97;96025.72;5107295;28;20580;-76
2022/02/17 07:24:28;;;;;;;3.58;1.02;;;;;;;6.00;72.07;96050.38;5110659;28;20058;-75
2022/02/17 07:26:53;;;;;;;5.13;2.13;;;;;;;5.12;73.23;96045.94;5110979;28;20059;-77
2022/02/17 07:29:19;;;;;;;25.00;10.27;;;;;;;4.65;76.19;96076.41;5110436;28;20028;-76
2022/02/17 07:31:45;;;;;;;18.05;6.68;;;;;;;4.34;77.93;96098.19;5108911;28;20782;-76
2022/02/17 07:34:10;;;;;;;16.40;5.03;;;;;;;4.20;79.50;96107.22;5110560;28;20119;-77
2022/02/17 07:36:37;;;;;;;9.10;2.30;;;;;;;4.13;81.28;96125.84;5110439;28;20028;-76
2022/02/17 07:39:04;;;;;;;31.40;6.60;;;;;;;4.06;84.04;96153.44;5091260;28;20025;-77
2022/02/17 07:41:31;;;;;;;5.63;1.40;;;;;;;4.07;84.75;96154.25;5109707;28;20024;-72
2022/02/17 07:43:57;;;;;;;7.85;2.85;;;;;;;4.06;84.62;96177.84;5109942;28;20027;-74
2022/02/17 07:46:22;;;;;;;1.88;0.68;;;;;;;4.12;86.76;96171.19;5110859;28;20431;-74
2022/02/17 07:48:50;;;;;;;5.05;1.55;;;;;;;4.16;86.45;96202.03;5109953;28;20023;-73
2022/02/17 07:51:17;;;;;;;7.30;2.30;;;;;;;4.18;86.17;96215.25;5109473;28;20031;-74
2022/02/17 07:53:43;;;;;;;6.68;2.35;;;;;;;4.20;86.12;96206.81;5109821;28;20051;-75
2022/02/17 07:56:08;;;;;;;7.43;2.00;;;;;;;4.17;87.18;96240.78;5109269;28;20067;-75
2022/02/17 07:58:34;;;;;;;6.45;1.50;;;;;;;4.16;87.60;96256.28;5109461;28;20459;-75
2022/02/17 08:01:01;;;;;;;12.57;3.55;;;;;;;4.20;88.35;96261.09;5088401;28;20020;-75
2022/02/17 08:03:27;;;;;;;9.35;2.70;;;;;;;4.25;88.66;96263.69;5109440;28;20020;-76
2022/02/17 08:05:53;;;;;;;7.65;1.80;;;;;;;4.28;88.64;96280.13;5108893;28;20039;-74
2022/02/17 08:08:19;;;;;;;5.18;1.95;;;;;;;4.32;88.49;96277.59;5104744;28;20024;-76
2022/02/17 08:10:44;;;;;;;7.28;1.60;;;;;;;4.38;89.35;96289.94;5107284;28;20028;-77
2022/02/17 08:13:10;;;;;;;5.97;2.22;;;;;;;4.41;89.29;96293.94;5105672;28;20103;-76
2022/02/17 08:15:35;;;;;;;12.15;3.95;;;;;;;4.44;89.31;96304.97;5107608;28;20036;-76
2022/02/17 08:18:01;;;;;;;6.15;2.28;;;;;;;4.45;89.36;96293.00;5108533;28;20084;-78
2022/02/17 08:20:26;;;;;;;13.32;4.25;;;;;;;4.45;89.05;96279.44;5088875;28;20089;-75
2022/02/17 08:22:56;;;;;;;10.80;3.08;;;;;;;4.39;88.79;96233.75;5111082;28;20119;-77
2022/02/17 08:25:23;;;;;;;13.43;4.32;;;;;;;4.42;88.38;96214.13;5112987;28;20493;-80
2022/02/17 08:27:49;;;;;;;10.52;2.72;;;;;;;4.50;88.33;96190.84;5112829;28;20659;-77
2022/02/17 08:30:15;;;;;;;3.85;1.17;;;;;;;4.61;88.01;96194.91;5112304;28;20027;-75
2022/02/17 08:32:41;;;;;;;2.63;1.08;;;;;;;4.66;87.83;96170.31;5112679;28;20028;-74
2022/02/17 08:35:10;;;;;;;4.18;1.25;;;;;;;4.69;87.94;96166.97;5112324;28;20104;-76
2022/02/17 08:37:36;;;;;;;3.50;1.55;;;;;;;4.75;87.96;96181.22;5111809;28;20039;-77
2022/02/17 08:40:03;;;;;;;3.35;1.23;;;;;;;4.80;87.82;96174.81;5112052;27;20031;-76
2022/02/17 08:42:28;;;;;;;2.20;1.02;;;;;;;4.87;87.07;96175.97;5092809;28;20027;-76
2022/02/17 08:44:54;;;;;;;3.97;1.30;;;;;;;4.96;86.86;96178.72;5112848;28;20031;-75
2022/02/17 08:47:19;;;;;;;3.30;1.10;;;;;;;4.98;87.67;96175.66;5113203;28;20115;-79
2022/02/17 08:49:45;;;;;;;3.00;1.17;;;;;;;4.99;86.71;96174.56;5111549;28;20050;-79
2022/02/17 08:52:11;;;;;;;2.45;1.02;;;;;;;5.02;86.89;96187.50;5111934;28;20097;-78
2022/02/17 08:54:36;;;;;;;3.20;1.23;;;;;;;5.06;86.79;96180.34;5092924;28;20030;-76
2022/02/17 08:57:03;;;;;;;4.70;1.65;;;;;;;5.05;87.08;96197.75;5111976;28;20077;-76
2022/02/17 08:59:29;;;;;;;4.70;1.60;;;;;;;4.99;86.92;96202.53;5111135;28;20392;-76
2022/02/17 09:01:54;;;;;;;4.13;1.83;;;;;;;4.98;86.76;96211.81;5111683;28;20039;-76
2022/02/17 09:04:20;;;;;;;6.90;2.83;;;;;;;5.00;87.26;96228.59;5093744;28;20031;-76
2022/02/17 09:06:50;;;;;;;11.02;3.72;;;;;;;5.05;87.68;96249.38;5094919;28;20776;-76
2022/02/17 09:09:16;;;;;;;11.57;4.30;;;;;;;5.10;86.89;96246.50;5112133;28;20608;-74
2022/02/17 09:11:42;;;;;;;6.15;2.55;;;;;;;5.16;87.56;96231.66;5111386;28;20482;-74
2022/02/17 09:14:07;;;;;;;7.57;2.47;;;;;;;5.22;87.07;96243.19;5112315;28;20047;-75
2022/02/17 09:16:34;;;;;;;5.80;2.05;;;;;;;5.31;87.07;96254.06;5111043;28;20677;-73
2022/02/17 09:18:59;;;;;;;5.75;2.17;;;;;;;5.39;86.66;96244.34;5112094;28;20024;-72
2022/02/17 09:21:25;;;;;;;15.75;6.10;;;;;;;5.50;86.89;96234.78;5111220;28;20560;-75
2022/02/17 09:23:51;;;;;;;14.55;4.72;;;;;;;5.65;87.24;96249.81;5111582;28;20036;-79
2022/02/17 09:26:18;;;;;;;9.80;4.20;;;;;;;5.79;86.90;96225.19;5112066;28;20110;-76
2022/02/17 09:28:46;;;;;;;5.50;2.80;;;;;;;5.93;86.50;96216.88;5111849;28;20106;-74
2022/02/17 09:31:13;;;;;;;6.40;2.22;;;;;;;6.13;86.20;96207.25;5111257;28;20020;-74
2022/02/17 09:33:39;;;;;;;5.63;2.50;;;;;;;6.30;85.93;96194.75;5103559;28;20035;-72
2022/02/17 09:36:06;;;;;;;7.55;2.80;;;;;;;6.40;85.90;96184.31;5108652;28;20031;-73
2022/02/17 09:38:31;;;;;;;6.93;2.50;;;;;;;6.53;85.95;96162.63;5111191;28;20055;-74
2022/02/17 09:40:57;;;;;;;5.50;2.00;;;;;;;6.73;85.62;96169.28;5110989;27;20779;-73
2022/02/17 09:43:25;;;;;;;6.43;2.10;;;;;;;6.96;84.96;96180.69;5112085;27;20059;-75
2022/02/17 09:45:51;;;;;;;8.98;2.00;;;;;;;7.19;83.69;96188.59;5110967;28;20035;-76
2022/02/17 09:48:17;;;;;;;3.72;1.73;;;;;;;7.52;82.76;96178.94;5110729;28;20094;-76
2022/02/17 09:50:44;;;;;;;3.28;1.58;;;;;;;7.86;82.56;96183.28;5109905;28;20076;-74
2022/02/17 09:53:10;;;;;;;14.50;5.88;;;;;;;8.19;81.83;96198.09;5092785;28;20079;-76
2022/02/17 09:55:35;;;;;;;2.90;1.20;;;;;;;8.40;78.24;96199.97;5082628;28;20535;-73
2022/02/17 09:58:01;;;;;;;3.47;1.48;;;;;;;8.60;76.03;96188.22;5090714;28;20040;-71
2022/02/17 10:00:26;;;;;;;3.08;1.17;;;;;;;8.67;78.87;96195.84;5090345;28;20020;-76
2022/02/17 10:02:52;;;;;;;6.43;1.73;;;;;;;8.69;73.49;96218.16;5086552;28;20551;-73
2022/02/17 10:05:17;;;;;;;5.88;1.73;;;;;;;8.72;73.05;96205.78;5090923;28;20020;-74
2022/02/17 10:07:44;;;;;;;2.50;1.20;;;;;;;8.72;75.44;96227.63;5088983;28;20028;-73
2022/02/17 10:10:13;;;;;;;7.10;2.10;;;;;;;8.87;73.72;96237.91;5088329;28;20028;-73
2022/02/17 10:13:04;;;;;;;2.57;1.17;;;;;;;8.79;72.04;96241.53;5085282;28;20035;-74
2022/02/17 10:15:38;;;;;;;2.50;1.30;;;;;;;8.79;71.54;96234.13;5087320;28;20506;-75
2022/02/17 10:18:03;;;;;;;3.08;1.30;;;;;;;8.79;70.56;96236.88;5090332;28;20097;-72
2022/02/17 10:20:52;;;;;;;2.80;1.10;;;;;;;8.71;65.96;96250.63;5088232;28;20445;-76
2022/02/17 10:23:22;;;;;;;2.65;1.00;;;;;;;8.64;65.55;96251.16;5088727;28;20602;-76
2022/02/17 10:25:57;;;;;;;3.70;1.23;;;;;;;8.66;65.99;96248.13;5080266;28;20036;-72
2022/02/17 10:28:23;;;;;;;2.88;1.10;;;;;;;8.72;64.96;96244.03;5088045;28;20055;-74
2022/02/17 10:30:48;;;;;;;3.03;1.30;;;;;;;8.85;64.78;96231.19;5089391;28;20048;-74
2022/02/17 10:33:13;;;;;;;7.45;1.42;;;;;;;8.98;64.46;96223.78;5086432;28;20027;-70
2022/02/17 10:35:51;;;;;;;4.05;1.65;;;;;;;9.12;62.73;96242.59;5090011;28;20429;-74
2022/02/17 10:38:20;;;;;;;2.95;1.20;;;;;;;9.22;61.92;96237.47;5087187;28;20468;-78
2022/02/17 10:40:54;;;;;;;5.45;1.80;;;;;;;9.35;63.62;96251.13;5085621;28;20492;-76
2022/02/17 10:43:22;;;;;;;4.95;1.50;;;;;;;9.52;60.98;96237.22;5088761;28;20024;-75
2022/02/17 10:45:49;;;;;;;2.05;1.20;;;;;;;9.68;59.90;96251.00;5087883;28;20032;-74
2022/02/17 10:48:28;;;;;;;2.80;1.42;;;;;;;9.86;61.75;96237.03;5088461;28;20028;-75
2022/02/17 10:51:16;;;;;;;2.80;1.20;;;;;;;10.01;58.17;96240.97;5071784;28;20135;-73
2022/02/17 10:53:58;;;;;;;1.48;0.60;;;;;;;10.07;56.16;96256.03;5088774;28;20208;-73
2022/02/17 10:56:24;;;;;;;2.65;1.10;;;;;;;10.03;54.02;96232.44;5100351;28;20043;-74
2022/02/17 10:58:50;;;;;;;2.28;0.90;;;;;;;9.95;53.87;96225.97;5110026;28;20434;-75
2022/02/17 11:01:18;;;;;;;6.88;2.55;;;;;;;9.90;55.31;96246.16;5109347;28;20035;-77
2022/02/17 11:03:44;;;;;;;2.83;0.70;;;;;;;9.91;54.83;96228.59;5106293;28;20023;-79
2022/02/17 11:06:12;;;;;;;1.35;0.63;;;;;;;9.90;54.90;96227.00;5109539;28;20031;-79
2022/02/17 11:08:39;;;;;;;2.25;1.35;;;;;;;9.88;55.67;96221.06;5110723;28;20038;-79
2022/02/17 11:11:06;;;;;;;1.52;1.00;;;;;;;9.85;55.91;96218.22;5110187;28;20487;-77
2022/02/17 11:13:33;;;;;;;1.10;0.70;;;;;;;9.83;55.09;96219.38;5109157;28;20034;-78
2022/02/17 11:16:02;;;;;;;6.88;2.47;;;;;;;9.82;56.50;96230.66;5108411;28;20073;-78
2022/02/17 11:18:28;;;;;;;8.05;2.70;;;;;;;9.70;55.07;96204.13;5109814;28;20119;-79
2022/02/17 11:21:00;;;;;;;11.75;3.85;;;;;;;9.60;55.31;96212.78;5108993;28;20387;-78
2022/02/17 11:23:34;;;;;;;19.77;5.68;;;;;;;9.53;56.07;96192.31;5108471;28;20505;-77
2022/02/17 11:26:02;;;;;;;1.75;0.68;;;;;;;9.47;55.16;96192.88;5108891;28;20110;-77
2022/02/17 11:28:35;;;;;;;6.28;1.73;;;;;;;9.54;54.79;96206.78;5110763;28;20039;-76
2022/02/17 11:31:03;;;;;;;2.13;0.73;;;;;;;9.66;53.62;96200.47;5100551;28;20129;-75
2022/02/17 11:33:35;;;;;;;4.28;1.30;;;;;;;9.83;54.97;96219.38;5108067;28;20070;-76
2022/02/17 11:36:24;;;;;;;3.83;1.23;;;;;;;9.90;54.60;96218.78;5109540;28;20030;-73
2022/02/17 11:38:57;;;;;;;3.58;1.50;;;;;;;9.83;54.15;96235.81;5109667;28;20023;-74
2022/02/17 11:41:30;;;;;;;3.00;1.00;;;;;;;9.75;54.54;96230.47;5108770;28;20050;-73